createdAt,value
2018-12-27T00:01:29.754Z,0.62
2018-12-27T00:03:57.137Z,0.64
2018-12-27T00:06:25.610Z,0.64
2018-12-27T00:08:52.722Z,0.67
2018-12-27T00:11:20.182Z,0.65
2018-12-27T00:13:48.732Z,0.70
2018-12-27T00:16:16.918Z,0.74
2018-12-27T00:18:44.436Z,0.75
2018-12-27T00:21:11.513Z,0.76
2018-12-27T00:23:38.593Z,0.68
2018-12-27T00:26:05.306Z,0.65
2018-12-27T00:28:32.090Z,0.64
2018-12-27T00:30:58.882Z,0.66
2018-12-27T00:33:25.578Z,0.59
2018-12-27T00:35:52.481Z,0.57
2018-12-27T00:38:19.225Z,0.60
2018-12-27T00:40:46.192Z,0.53
2018-12-27T00:43:14.258Z,0.44
2018-12-27T00:45:40.956Z,0.39
2018-12-27T00:48:07.681Z,0.28
2018-12-27T00:50:35.807Z,0.09
2018-12-27T00:53:03.719Z,0.09
2018-12-27T00:55:30.423Z,0.18
2018-12-27T00:57:57.134Z,0.27
2018-12-27T01:00:23.842Z,0.18
2018-12-27T01:02:50.821Z,0.19
2018-12-27T01:05:17.644Z,0.24
2018-12-27T01:07:44.343Z,0.37
2018-12-27T01:10:13.195Z,0.37
2018-12-27T01:12:39.929Z,0.38
2018-12-27T01:15:06.740Z,0.40
2018-12-27T01:17:33.485Z,0.39
2018-12-27T01:20:00.325Z,0.42
2018-12-27T01:22:30.465Z,0.43
2018-12-27T01:24:57.193Z,0.40
2018-12-27T01:27:25.189Z,0.44
2018-12-27T01:29:51.925Z,0.47
2018-12-27T01:32:18.773Z,0.55
2018-12-27T01:34:45.615Z,0.52
2018-12-27T01:37:12.380Z,0.32
2018-12-27T01:39:44.186Z,0.15
2018-12-27T01:42:10.914Z,0.22
2018-12-27T01:44:38.590Z,0.26
2018-12-27T01:47:05.305Z,0.42
2018-12-27T01:49:32.005Z,0.49
2018-12-27T01:51:58.770Z,0.53
2018-12-27T01:54:25.575Z,0.51
2018-12-27T01:56:53.583Z,0.46
2018-12-27T01:59:20.850Z,0.49
2018-12-27T02:01:47.689Z,0.48
2018-12-27T02:04:14.412Z,0.52
2018-12-27T02:06:41.208Z,0.51
2018-12-27T02:09:07.932Z,0.47
2018-12-27T02:11:35.375Z,0.52
2018-12-27T02:14:04.033Z,0.55
2018-12-27T02:16:30.728Z,0.53
2018-12-27T02:18:57.404Z,0.51
2018-12-27T02:21:24.139Z,0.56
2018-12-27T02:23:52.244Z,0.59
2018-12-27T02:26:20.885Z,0.54
2018-12-27T02:28:47.637Z,0.45
2018-12-27T02:31:14.332Z,0.50
2018-12-27T02:33:41.009Z,0.50
2018-12-27T02:36:07.770Z,0.43
2018-12-27T02:38:34.465Z,0.42
2018-12-27T02:41:01.177Z,0.53
2018-12-27T02:43:30.724Z,0.52
2018-12-27T02:45:57.780Z,0.45
2018-12-27T02:48:24.487Z,0.46
2018-12-27T02:50:51.554Z,0.43
2018-12-27T02:53:18.258Z,0.43
2018-12-27T02:55:45.294Z,0.39
2018-12-27T02:58:12.565Z,0.41
2018-12-27T03:00:39.314Z,0.43
2018-12-27T03:03:06.006Z,0.46
2018-12-27T03:05:32.859Z,0.41
2018-12-27T03:07:59.693Z,0.38
2018-12-27T03:10:26.531Z,0.45
2018-12-27T03:12:53.346Z,0.43
2018-12-27T03:15:20.064Z,0.39
2018-12-27T03:17:46.772Z,0.38
2018-12-27T03:20:13.493Z,0.03
2018-12-27T03:22:43.120Z,-0.20
2018-12-27T03:25:09.866Z,-0.12
2018-12-27T03:27:36.630Z,0.11
2018-12-27T03:30:06.224Z,0.16
2018-12-27T03:32:34.033Z,0.18
2018-12-27T03:35:01.156Z,0.19
2018-12-27T03:37:27.909Z,0.19
2018-12-27T03:39:55.001Z,0.26
2018-12-27T03:42:24.864Z,0.31
2018-12-27T03:44:52.743Z,0.19
2018-12-27T03:47:19.477Z,0.05
2018-12-27T03:49:46.315Z,0.16
2018-12-27T03:52:13.048Z,0.03
2018-12-27T03:54:40.156Z,-0.04
2018-12-27T03:57:06.870Z,0.09
2018-12-27T03:59:33.569Z,0.14
2018-12-27T04:02:00.291Z,0.20
2018-12-27T04:04:27.110Z,0.27
2018-12-27T04:06:53.800Z,0.27
2018-12-27T04:09:23.417Z,0.31
2018-12-27T04:11:50.123Z,0.25
2018-12-27T04:14:16.836Z,0.24
2018-12-27T04:16:43.722Z,0.25
2018-12-27T04:19:10.477Z,0.31
2018-12-27T04:21:38.285Z,0.31
2018-12-27T04:24:05.030Z,0.36
2018-12-27T04:26:31.766Z,0.36
2018-12-27T04:28:58.933Z,0.38
2018-12-27T04:31:25.710Z,0.45
2018-12-27T04:33:52.439Z,0.45
2018-12-27T04:36:19.176Z,0.34
2018-12-27T04:38:46.148Z,0.31
2018-12-27T04:41:15.492Z,0.30
2018-12-27T04:43:42.373Z,0.35
2018-12-27T04:46:09.469Z,0.40
2018-12-27T04:48:36.263Z,0.47
2018-12-27T04:51:03.053Z,0.34
2018-12-27T04:53:29.918Z,0.27
2018-12-27T04:55:56.681Z,0.29
2018-12-27T04:58:23.518Z,0.28
2018-12-27T05:00:50.324Z,0.32
2018-12-27T05:03:17.098Z,0.38
2018-12-27T05:05:44.166Z,0.40
2018-12-27T05:08:10.853Z,0.37
2018-12-27T05:10:37.805Z,0.35
2018-12-27T05:13:04.549Z,0.34
2018-12-27T05:15:31.655Z,0.28
2018-12-27T05:17:58.463Z,0.39
2018-12-27T05:20:25.214Z,0.42
2018-12-27T05:22:51.933Z,0.44
2018-12-27T05:25:21.760Z,0.38
2018-12-27T05:27:48.501Z,0.17
2018-12-27T05:30:16.618Z,0.15
2018-12-27T05:32:43.522Z,-0.09
2018-12-27T05:35:10.543Z,-0.11
2018-12-27T05:37:37.249Z,0.02
2018-12-27T05:40:04.433Z,0.06
2018-12-27T05:42:32.281Z,0.00
2018-12-27T05:44:58.964Z,0.00
2018-12-27T05:47:25.947Z,0.04
2018-12-27T05:49:52.788Z,-0.03
2018-12-27T05:52:21.076Z,-0.36
2018-12-27T05:54:47.861Z,-0.45
2018-12-27T05:57:14.612Z,-0.34
2018-12-27T05:59:41.341Z,-0.20
2018-12-27T06:02:10.642Z,-0.16
2018-12-27T06:04:37.336Z,-0.12
2018-12-27T06:07:04.074Z,-0.14
2018-12-27T06:09:33.519Z,-0.09
2018-12-27T06:12:00.693Z,-0.09
2018-12-27T06:14:27.526Z,-0.02
2018-12-27T06:16:54.573Z,-0.04
2018-12-27T06:19:21.610Z,-0.04
2018-12-27T06:21:48.464Z,0.00
2018-12-27T06:24:15.176Z,-0.25
2018-12-27T06:26:41.945Z,-0.02
2018-12-27T06:29:08.837Z,-0.08
2018-12-27T06:31:35.609Z,-0.04
2018-12-27T06:34:02.476Z,-0.02
2018-12-27T06:36:29.926Z,-0.05
2018-12-27T06:38:56.673Z,-0.03
2018-12-27T06:41:23.438Z,-0.02
2018-12-27T06:43:50.122Z,-0.01
2018-12-27T06:46:16.944Z,0.02
2018-12-27T06:48:43.711Z,-0.01
2018-12-27T06:51:10.545Z,-0.01
2018-12-27T06:53:37.412Z,0.13
2018-12-27T06:56:04.140Z,0.12
2018-12-27T06:58:37.593Z,0.16
2018-12-27T07:00:59.477Z,0.16
2018-12-27T07:03:26.238Z,0.08
2018-12-27T07:05:52.955Z,0.00
2018-12-27T07:08:19.745Z,-0.02
2018-12-27T07:10:46.742Z,-0.01
2018-12-27T07:13:13.618Z,-0.06
2018-12-27T07:15:40.317Z,-0.11
2018-12-27T07:18:07.810Z,-0.15
2018-12-27T07:20:34.524Z,-0.17
2018-12-27T07:23:01.344Z,-0.27
2018-12-27T07:25:28.101Z,-0.31
2018-12-27T07:27:57.355Z,-0.33
2018-12-27T07:30:24.134Z,-0.28
2018-12-27T07:32:50.874Z,-0.15
2018-12-27T07:35:17.853Z,-0.14
2018-12-27T07:37:44.733Z,-0.13
2018-12-27T07:40:11.721Z,-0.15
2018-12-27T07:42:38.557Z,-0.34
2018-12-27T07:45:08.213Z,-0.46
2018-12-27T07:47:35.039Z,-0.49
2018-12-27T07:50:01.772Z,-0.40
2018-12-27T07:52:28.686Z,-0.28
2018-12-27T07:54:55.708Z,-0.16
2018-12-27T07:57:22.469Z,-0.14
2018-12-27T07:59:49.219Z,-0.18
2018-12-27T08:02:17.844Z,-0.20
2018-12-27T08:04:44.581Z,-0.10
2018-12-27T08:07:11.294Z,-0.12
2018-12-27T08:09:38.220Z,-0.17
2018-12-27T08:12:04.948Z,-0.12
2018-12-27T08:14:31.900Z,-0.18
2018-12-27T08:16:58.596Z,-0.15
2018-12-27T08:19:25.352Z,-0.12
2018-12-27T08:21:52.141Z,-0.02
2018-12-27T08:24:19.195Z,-0.02
2018-12-27T08:26:46.121Z,-0.02
2018-12-27T08:29:14.547Z,0.06
2018-12-27T08:31:41.292Z,0.07
2018-12-27T08:34:08.473Z,0.08
2018-12-27T08:36:35.352Z,0.10
2018-12-27T08:39:03.395Z,0.16
2018-12-27T08:41:30.074Z,0.33
2018-12-27T08:43:56.959Z,0.39
2018-12-27T08:46:24.534Z,0.46
2018-12-27T08:48:51.600Z,0.29
2018-12-27T08:51:19.542Z,0.30
2018-12-27T08:53:46.264Z,0.15
2018-12-27T08:56:13.104Z,-0.08
2018-12-27T08:58:40.450Z,0.08
2018-12-27T09:01:07.217Z,0.26
2018-12-27T09:03:34.385Z,0.40
2018-12-27T09:06:01.612Z,0.46
2018-12-27T09:08:28.611Z,0.69
2018-12-27T09:10:55.503Z,0.66
2018-12-27T09:13:22.300Z,0.56
2018-12-27T09:15:51.037Z,0.64
2018-12-27T09:18:17.723Z,0.69
2018-12-27T09:20:44.473Z,0.70
2018-12-27T09:23:15.486Z,0.65
2018-12-27T09:25:42.906Z,0.74
2018-12-27T09:28:09.635Z,0.89
2018-12-27T09:30:38.333Z,0.91
2018-12-27T09:33:05.004Z,1.01
2018-12-27T09:35:31.737Z,1.07
2018-12-27T09:38:00.680Z,1.30
2018-12-27T09:40:27.410Z,1.22
2018-12-27T09:42:56.552Z,1.13
2018-12-27T09:45:25.185Z,1.11
2018-12-27T09:47:53.580Z,1.20
2018-12-27T09:50:20.300Z,1.30
2018-12-27T09:52:48.287Z,1.34
2018-12-27T09:55:15.061Z,1.26
2018-12-27T09:57:42.096Z,1.24
2018-12-27T10:00:08.973Z,1.39
2018-12-27T10:02:35.719Z,1.43
2018-12-27T10:05:03.029Z,1.62
2018-12-27T10:07:29.908Z,1.63
2018-12-27T10:09:56.637Z,1.58
2018-12-27T10:12:23.707Z,1.52
2018-12-27T10:14:50.740Z,1.41
2018-12-27T10:17:17.686Z,1.38
2018-12-27T10:19:45.963Z,1.48
2018-12-27T10:22:12.782Z,1.69
2018-12-27T10:24:39.647Z,1.76
2018-12-27T10:27:06.384Z,1.70
2018-12-27T10:29:33.426Z,1.58
2018-12-27T10:32:00.395Z,1.73
2018-12-27T10:34:27.098Z,1.85
2018-12-27T10:36:54.091Z,1.95
2018-12-27T10:39:20.945Z,1.92
2018-12-27T10:41:47.864Z,1.84
2018-12-27T10:44:14.582Z,2.01
2018-12-27T10:46:41.377Z,2.06
2018-12-27T10:49:08.479Z,2.13
2018-12-27T10:51:35.172Z,2.20
2018-12-27T10:54:02.088Z,2.36
2018-12-27T10:56:28.985Z,2.46
2018-12-27T10:58:55.912Z,2.41
2018-12-27T11:01:23.164Z,2.40
2018-12-27T11:03:50.414Z,2.45
2018-12-27T11:06:17.396Z,2.58
2018-12-27T11:08:44.458Z,2.58
2018-12-27T11:11:13.068Z,2.61
2018-12-27T11:13:41.785Z,2.72
2018-12-27T11:16:09.019Z,2.88
2018-12-27T11:18:36.950Z,2.85
2018-12-27T11:21:03.898Z,2.83
2018-12-27T11:23:30.775Z,2.99
2018-12-27T11:25:57.559Z,3.11
2018-12-27T11:28:24.420Z,3.03
2018-12-27T11:30:53.499Z,3.06
2018-12-27T11:33:20.388Z,3.21
2018-12-27T11:35:47.603Z,3.07
2018-12-27T11:38:14.542Z,3.03
2018-12-27T11:40:41.804Z,3.16
2018-12-27T11:43:09.639Z,3.09
2018-12-27T11:45:36.986Z,3.03
2018-12-27T11:48:04.294Z,3.08
2018-12-27T11:50:31.444Z,3.11
2018-12-27T11:52:58.168Z,3.18
2018-12-27T11:55:25.105Z,3.28
2018-12-27T11:57:51.970Z,3.27
2018-12-27T12:00:19.103Z,3.31
2018-12-27T12:02:45.876Z,3.35
2018-12-27T12:05:13.198Z,3.32
2018-12-27T12:07:40.344Z,3.19
2018-12-27T12:10:07.133Z,3.22
2018-12-27T12:12:38.414Z,3.36
2018-12-27T12:15:06.142Z,3.29
2018-12-27T12:17:32.960Z,3.00
2018-12-27T12:19:59.760Z,3.23
2018-12-27T12:22:26.546Z,3.43
2018-12-27T12:24:53.454Z,3.59
2018-12-27T12:27:20.300Z,3.69
2018-12-27T12:29:50.047Z,3.85
2018-12-27T12:32:17.355Z,3.95
2018-12-27T12:34:44.120Z,4.00
2018-12-27T12:37:14.206Z,3.94
2018-12-27T12:39:39.853Z,3.68
2018-12-27T12:42:07.006Z,3.72
2018-12-27T12:44:34.044Z,3.65
2018-12-27T12:47:01.144Z,3.52
2018-12-27T12:49:31.645Z,3.58
2018-12-27T12:51:58.536Z,3.55
2018-12-27T12:54:25.306Z,3.69
2018-12-27T12:56:52.343Z,3.85
2018-12-27T12:59:19.848Z,3.99
2018-12-27T13:01:46.951Z,4.05
2018-12-27T13:04:15.093Z,4.13
2018-12-27T13:06:42.445Z,4.17
2018-12-27T13:09:10.439Z,4.27
2018-12-27T13:11:37.848Z,4.25
2018-12-27T13:14:04.957Z,4.29
2018-12-27T13:16:31.992Z,4.31
2018-12-27T13:18:58.824Z,4.31
2018-12-27T13:21:25.709Z,4.36
2018-12-27T13:23:52.779Z,4.29
2018-12-27T13:26:19.690Z,4.41
2018-12-27T13:28:48.426Z,4.51
2018-12-27T13:31:15.188Z,4.54
2018-12-27T13:33:42.595Z,4.42
2018-12-27T13:36:09.902Z,4.32
2018-12-27T13:38:37.139Z,4.36
2018-12-27T13:41:04.094Z,4.62
2018-12-27T13:43:30.973Z,4.61
2018-12-27T13:45:59.616Z,4.61
2018-12-27T13:48:27.787Z,4.51
2018-12-27T13:50:54.520Z,4.14
2018-12-27T13:53:21.420Z,4.14
2018-12-27T13:55:48.565Z,4.04
2018-12-27T13:58:15.332Z,4.08
2018-12-27T14:00:42.100Z,3.94
2018-12-27T14:03:09.206Z,3.84
2018-12-27T14:05:36.086Z,3.81
2018-12-27T14:08:02.908Z,3.82
2018-12-27T14:10:32.419Z,3.94
2018-12-27T14:12:59.159Z,3.96
2018-12-27T14:15:26.113Z,4.08
2018-12-27T14:17:53.322Z,4.17
2018-12-27T14:20:20.225Z,4.11
2018-12-27T14:22:47.345Z,3.97
2018-12-27T14:25:14.233Z,3.92
2018-12-27T14:27:41.565Z,3.89
2018-12-27T14:30:08.403Z,3.79
2018-12-27T14:32:35.564Z,3.75
2018-12-27T14:35:03.719Z,3.68
2018-12-27T14:37:30.413Z,3.64
2018-12-27T14:39:57.415Z,3.66
2018-12-27T14:42:35.700Z,3.79
2018-12-27T14:45:02.697Z,3.98
2018-12-27T14:47:29.444Z,4.04
2018-12-27T14:49:56.312Z,3.92
2018-12-27T14:52:24.701Z,3.80
2018-12-27T14:54:51.497Z,3.70
2018-12-27T14:57:18.368Z,3.83
2018-12-27T14:59:45.437Z,3.96
2018-12-27T15:02:14.309Z,4.00
2018-12-27T15:04:41.234Z,3.83
2018-12-27T15:07:09.449Z,3.61
2018-12-27T15:09:37.663Z,3.51
2018-12-27T15:12:04.503Z,3.55
2018-12-27T15:14:31.378Z,3.58
2018-12-27T15:16:58.055Z,3.64
2018-12-27T15:19:25.338Z,3.74
2018-12-27T15:21:52.702Z,3.78
2018-12-27T15:24:19.530Z,3.64
2018-12-27T15:26:46.264Z,3.42
2018-12-27T15:29:13.246Z,3.46
2018-12-27T15:31:40.061Z,3.43
2018-12-27T15:34:06.817Z,3.46
2018-12-27T15:36:34.622Z,3.47
2018-12-27T15:39:01.356Z,3.47
2018-12-27T15:41:29.303Z,3.56
2018-12-27T15:43:56.044Z,3.39
2018-12-27T15:46:22.726Z,3.41
2018-12-27T15:48:49.484Z,3.47
2018-12-27T15:51:16.228Z,3.53
2018-12-27T15:53:43.086Z,3.53
2018-12-27T15:56:09.798Z,3.43
2018-12-27T15:58:36.683Z,3.24
2018-12-27T16:01:03.730Z,3.22
2018-12-27T16:03:30.535Z,3.28
2018-12-27T16:05:57.301Z,3.28
2018-12-27T16:08:24.020Z,3.17
2018-12-27T16:10:51.128Z,3.17
2018-12-27T16:13:17.831Z,3.16
2018-12-27T16:15:44.540Z,3.02
2018-12-27T16:18:11.266Z,2.95
2018-12-27T16:20:38.029Z,2.85
2018-12-27T16:23:04.818Z,2.92
2018-12-27T16:25:31.679Z,2.99
2018-12-27T16:27:58.647Z,3.07
2018-12-27T16:30:25.426Z,3.22
2018-12-27T16:32:52.304Z,3.28
2018-12-27T16:35:19.183Z,3.29
2018-12-27T16:37:46.090Z,3.32
2018-12-27T16:40:13.487Z,3.38
2018-12-27T16:42:44.106Z,3.36
2018-12-27T16:45:11.127Z,3.44
2018-12-27T16:47:40.605Z,3.53
2018-12-27T16:50:08.144Z,3.53
2018-12-27T16:52:35.313Z,3.35
2018-12-27T16:55:02.321Z,3.34
2018-12-27T16:57:30.633Z,3.34
2018-12-27T16:59:57.650Z,3.43
2018-12-27T17:02:24.633Z,3.47
2018-12-27T17:04:51.407Z,3.42
2018-12-27T17:07:18.340Z,3.42
2018-12-27T17:09:45.176Z,3.45
2018-12-27T17:12:12.397Z,3.51
2018-12-27T17:14:39.143Z,3.46
2018-12-27T17:17:05.985Z,3.39
2018-12-27T17:19:35.413Z,3.43
2018-12-27T17:22:02.506Z,3.43
2018-12-27T17:24:30.831Z,3.44
2018-12-27T17:26:58.012Z,3.36
2018-12-27T17:29:25.100Z,3.39
2018-12-27T17:31:52.356Z,3.35
2018-12-27T17:34:19.055Z,3.15
2018-12-27T17:36:45.863Z,2.84
2018-12-27T17:39:14.212Z,2.67
2018-12-27T17:41:42.579Z,2.68
2018-12-27T17:44:09.490Z,2.57
2018-12-27T17:46:37.874Z,2.49
2018-12-27T17:49:08.743Z,2.43
2018-12-27T17:51:35.798Z,2.39
2018-12-27T17:54:02.602Z,2.39
2018-12-27T17:56:29.415Z,2.47
2018-12-27T17:58:56.186Z,2.49
2018-12-27T18:01:22.915Z,2.60
2018-12-27T18:03:49.624Z,2.49
2018-12-27T18:06:16.461Z,2.39
2018-12-27T18:08:43.302Z,2.42
2018-12-27T18:11:10.171Z,2.59
2018-12-27T18:13:37.408Z,2.71
2018-12-27T18:16:04.772Z,2.84
2018-12-27T18:18:31.568Z,2.85
2018-12-27T18:20:59.118Z,2.69
2018-12-27T18:23:25.924Z,2.64
2018-12-27T18:25:55.139Z,2.70
2018-12-27T18:28:23.531Z,2.70
2018-12-27T18:30:50.742Z,2.78
2018-12-27T18:33:18.892Z,2.79
2018-12-27T18:35:45.863Z,2.71
2018-12-27T18:38:13.466Z,2.69
2018-12-27T18:40:47.330Z,2.67
2018-12-27T18:43:14.144Z,2.52
2018-12-27T18:45:40.951Z,2.40
2018-12-27T18:48:07.688Z,2.48
2018-12-27T18:50:34.406Z,2.62
2018-12-27T18:53:03.138Z,2.69
2018-12-27T18:55:30.283Z,2.78
2018-12-27T18:57:57.518Z,2.85
2018-12-27T19:00:24.587Z,2.86
2018-12-27T19:02:51.323Z,3.00
2018-12-27T19:05:18.087Z,2.92
2018-12-27T19:07:45.276Z,2.91
2018-12-27T19:10:13.586Z,2.88
2018-12-27T19:13:08.901Z,2.89
2018-12-27T19:15:48.285Z,2.89
2018-12-27T19:18:27.238Z,2.86
2018-12-27T19:20:59.712Z,2.81
2018-12-27T19:23:27.605Z,2.67
2018-12-27T19:25:54.437Z,2.65
2018-12-27T19:28:21.468Z,2.59
2018-12-27T19:30:48.723Z,2.66
2018-12-27T19:33:15.542Z,2.79
2018-12-27T19:35:42.388Z,2.82
2018-12-27T19:38:09.582Z,2.81
2018-12-27T19:40:36.290Z,2.86
2018-12-27T19:43:03.301Z,2.84
2018-12-27T19:45:30.101Z,2.79
2018-12-27T19:47:57.053Z,2.86
2018-12-27T19:50:25.266Z,2.96
2018-12-27T19:52:52.209Z,2.69
2018-12-27T19:55:19.089Z,2.50
2018-12-27T19:57:45.968Z,2.54
2018-12-27T20:00:13.117Z,2.74
2018-12-27T20:02:39.867Z,2.66
2018-12-27T20:05:06.926Z,2.68
2018-12-27T20:07:33.946Z,2.56
2018-12-27T20:10:00.826Z,2.53
2018-12-27T20:12:27.639Z,2.61
2018-12-27T20:14:54.384Z,2.68
2018-12-27T20:17:21.122Z,2.64
2018-12-27T20:19:47.841Z,2.79
2018-12-27T20:22:14.704Z,2.63
2018-12-27T20:24:42.142Z,2.46
2018-12-27T20:27:09.103Z,2.34
2018-12-27T20:29:36.132Z,2.21
2018-12-27T20:32:02.846Z,2.06
2018-12-27T20:34:29.559Z,1.95
2018-12-27T20:36:56.676Z,1.88
2018-12-27T20:39:24.000Z,1.97
2018-12-27T20:41:50.708Z,2.05
2018-12-27T20:44:17.537Z,2.04
2018-12-27T20:46:44.925Z,2.10
2018-12-27T20:49:11.672Z,2.09
2018-12-27T20:51:38.405Z,2.18
2018-12-27T20:54:07.279Z,2.29
2018-12-27T20:56:34.406Z,2.29
2018-12-27T20:59:01.264Z,2.44
2018-12-27T21:01:28.456Z,2.56
2018-12-27T21:03:55.369Z,2.65
2018-12-27T21:06:22.159Z,2.71
2018-12-27T21:08:48.878Z,2.70
2018-12-27T21:11:15.818Z,2.67
2018-12-27T21:13:42.545Z,2.67
2018-12-27T21:16:09.697Z,2.66
2018-12-27T21:18:36.590Z,2.68
2018-12-27T21:21:03.471Z,2.36
2018-12-27T21:23:30.770Z,2.38
2018-12-27T21:25:57.644Z,2.39
2018-12-27T21:28:24.349Z,2.34
2018-12-27T21:30:51.094Z,2.08
2018-12-27T21:33:17.914Z,2.04
2018-12-27T21:35:44.628Z,2.01
2018-12-27T21:38:11.457Z,1.91
2018-12-27T21:40:38.306Z,2.07
2018-12-27T21:43:05.361Z,2.24
2018-12-27T21:45:32.540Z,2.16
2018-12-27T21:47:59.810Z,2.19
2018-12-27T21:50:31.041Z,2.19
2018-12-27T21:52:57.902Z,2.14
2018-12-27T21:55:24.916Z,2.12
2018-12-27T21:57:53.928Z,2.09
2018-12-27T22:00:21.096Z,2.05
2018-12-27T22:02:48.055Z,2.00
2018-12-27T22:05:15.301Z,1.88
2018-12-27T22:07:42.414Z,1.82
2018-12-27T22:10:09.233Z,1.92
2018-12-27T22:12:36.155Z,1.95
2018-12-27T22:15:03.842Z,1.91
2018-12-27T22:17:30.565Z,1.91
2018-12-27T22:19:58.125Z,1.85
2018-12-27T22:22:25.201Z,1.80
2018-12-27T22:24:51.935Z,1.87
2018-12-27T22:27:18.680Z,1.84
2018-12-27T22:29:46.500Z,2.00
2018-12-27T22:32:13.305Z,1.89
2018-12-27T22:34:40.416Z,1.93
2018-12-27T22:37:11.580Z,1.92
2018-12-27T22:39:39.417Z,1.88
2018-12-27T22:42:06.307Z,1.85
2018-12-27T22:44:33.367Z,1.76
2018-12-27T22:47:00.079Z,1.78
2018-12-27T22:49:27.808Z,1.88
2018-12-27T22:51:54.506Z,2.05
2018-12-27T22:54:21.253Z,2.03
2018-12-27T22:56:50.720Z,1.91
2018-12-27T22:59:17.573Z,2.02
2018-12-27T23:01:44.361Z,2.05
2018-12-27T23:04:13.568Z,1.84
2018-12-27T23:06:40.508Z,1.71
2018-12-27T23:09:07.336Z,1.59
2018-12-27T23:11:34.096Z,1.54
2018-12-27T23:14:03.168Z,1.53
2018-12-27T23:16:29.874Z,1.49
2018-12-27T23:18:56.727Z,1.56
2018-12-27T23:21:23.587Z,1.58
2018-12-27T23:23:50.436Z,1.60
2018-12-27T23:26:17.165Z,1.75
2018-12-27T23:28:46.616Z,1.83
2018-12-27T23:31:13.334Z,1.88
2018-12-27T23:33:40.160Z,1.79
2018-12-27T23:36:07.165Z,1.82
2018-12-27T23:38:35.084Z,1.80
2018-12-27T23:41:01.859Z,1.73
2018-12-27T23:43:28.574Z,1.63
2018-12-27T23:45:55.400Z,1.48
2018-12-27T23:48:22.227Z,1.41
2018-12-27T23:50:49.041Z,1.39
2018-12-27T23:53:15.745Z,1.32
2018-12-27T23:55:42.497Z,1.29
2018-12-27T23:58:09.363Z,1.36
